sensor_id;sensor_type;location;lat;lon;timestamp;temperature;humidity
27384;DHT22;14851;51.166;4.760;2023-08-06T00:00:47;15.60;99.90
27384;DHT22;14851;51.166;4.760;2023-08-06T00:03:14;15.60;99.90
27384;DHT22;14851;51.166;4.760;2023-08-06T00:05:42;15.70;99.90
27384;DHT22;14851;51.166;4.760;2023-08-06T00:08:11;15.60;99.90
27384;DHT22;14851;51.166;4.760;2023-08-06T00:10:36;15.60;99.90
27384;DHT22;14851;51.166;4.760;2023-08-06T00:13:02;15.60;99.90
27384;DHT22;14851;51.166;4.760;2023-08-06T00:15:28;15.60;99.90
27384;DHT22;14851;51.166;4.760;2023-08-06T00:17:54;15.60;99.90
27384;DHT22;14851;51.166;4.760;2023-08-06T00:20:23;15.60;99.90
27384;DHT22;14851;51.166;4.760;2023-08-06T00:22:51;15.60;99.90
27384;DHT22;14851;51.166;4.760;2023-08-06T00:25:17;15.60;99.90
27384;DHT22;14851;51.166;4.760;2023-08-06T00:27:44;15.60;99.90
27384;DHT22;14851;51.166;4.760;2023-08-06T00:30:10;15.60;99.90
27384;DHT22;14851;51.166;4.760;2023-08-06T00:32:38;15.60;99.90
27384;DHT22;14851;51.166;4.760;2023-08-06T00:35:04;15.60;99.90
27384;DHT22;14851;51.166;4.760;2023-08-06T00:37:33;15.60;99.90
27384;DHT22;14851;51.166;4.760;2023-08-06T00:39:59;15.60;99.90
27384;DHT22;14851;51.166;4.760;2023-08-06T00:42:25;15.60;99.90
27384;DHT22;14851;51.166;4.760;2023-08-06T00:44:54;15.50;99.90
27384;DHT22;14851;51.166;4.760;2023-08-06T00:47:20;15.50;99.90
27384;DHT22;14851;51.166;4.760;2023-08-06T00:49:46;15.60;99.90
27384;DHT22;14851;51.166;4.760;2023-08-06T00:52:12;15.50;99.90
27384;DHT22;14851;51.166;4.760;2023-08-06T00:54:41;15.60;99.90
27384;DHT22;14851;51.166;4.760;2023-08-06T00:57:07;15.60;99.90
27384;DHT22;14851;51.166;4.760;2023-08-06T00:59:37;15.50;99.90
27384;DHT22;14851;51.166;4.760;2023-08-06T01:02:03;15.60;99.90
27384;DHT22;14851;51.166;4.760;2023-08-06T01:04:29;15.50;99.90
27384;DHT22;14851;51.166;4.760;2023-08-06T01:10:23;15.50;99.90
27384;DHT22;14851;51.166;4.760;2023-08-06T01:13:24;15.50;99.90
27384;DHT22;14851;51.166;4.760;2023-08-06T01:16:01;15.50;99.90
27384;DHT22;14851;51.166;4.760;2023-08-06T01:18:29;15.50;99.90
27384;DHT22;14851;51.166;4.760;2023-08-06T01:20:57;15.50;99.90
27384;DHT22;14851;51.166;4.760;2023-08-06T01:23:24;15.50;99.90
27384;DHT22;14851;51.166;4.760;2023-08-06T01:26:03;15.50;99.90
27384;DHT22;14851;51.166;4.760;2023-08-06T01:28:59;15.50;99.90
27384;DHT22;14851;51.166;4.760;2023-08-06T01:31:31;15.50;99.90
27384;DHT22;14851;51.166;4.760;2023-08-06T01:34:01;15.50;99.90
27384;DHT22;14851;51.166;4.760;2023-08-06T01:36:30;15.50;99.90
27384;DHT22;14851;51.166;4.760;2023-08-06T01:38:56;15.40;99.90
27384;DHT22;14851;51.166;4.760;2023-08-06T01:41:24;15.40;99.90
27384;DHT22;14851;51.166;4.760;2023-08-06T01:43:50;15.40;99.90
27384;DHT22;14851;51.166;4.760;2023-08-06T01:46:18;15.40;99.90
27384;DHT22;14851;51.166;4.760;2023-08-06T01:48:43;15.50;99.90
27384;DHT22;14851;51.166;4.760;2023-08-06T01:51:09;15.50;99.90
27384;DHT22;14851;51.166;4.760;2023-08-06T01:53:39;15.50;99.90
27384;DHT22;14851;51.166;4.760;2023-08-06T01:56:05;15.40;99.90
27384;DHT22;14851;51.166;4.760;2023-08-06T01:58:31;15.40;99.90
27384;DHT22;14851;51.166;4.760;2023-08-06T02:00:57;15.40;99.90
27384;DHT22;14851;51.166;4.760;2023-08-06T02:03:23;15.40;99.90
27384;DHT22;14851;51.166;4.760;2023-08-06T02:05:50;15.40;99.90
27384;DHT22;14851;51.166;4.760;2023-08-06T02:08:17;15.40;99.90
27384;DHT22;14851;51.166;4.760;2023-08-06T02:10:46;15.40;99.90
27384;DHT22;14851;51.166;4.760;2023-08-06T02:13:14;15.40;99.90
27384;DHT22;14851;51.166;4.760;2023-08-06T02:15:45;15.40;99.90
27384;DHT22;14851;51.166;4.760;2023-08-06T02:18:16;15.40;99.90
27384;DHT22;14851;51.166;4.760;2023-08-06T02:20:42;15.40;99.90
27384;DHT22;14851;51.166;4.760;2023-08-06T02:23:09;15.50;99.90
27384;DHT22;14851;51.166;4.760;2023-08-06T02:25:35;15.40;99.90
27384;DHT22;14851;51.166;4.760;2023-08-06T02:28:02;15.40;99.90
27384;DHT22;14851;51.166;4.760;2023-08-06T02:30:28;15.40;99.90
27384;DHT22;14851;51.166;4.760;2023-08-06T02:32:55;15.40;99.90
27384;DHT22;14851;51.166;4.760;2023-08-06T02:35:22;15.40;99.90
27384;DHT22;14851;51.166;4.760;2023-08-06T02:37:47;15.40;99.90
27384;DHT22;14851;51.166;4.760;2023-08-06T02:40:15;15.40;99.90
27384;DHT22;14851;51.166;4.760;2023-08-06T02:42:43;15.40;99.90
27384;DHT22;14851;51.166;4.760;2023-08-06T02:45:10;15.40;99.90
27384;DHT22;14851;51.166;4.760;2023-08-06T02:47:36;15.40;99.90
27384;DHT22;14851;51.166;4.760;2023-08-06T02:50:04;15.40;99.90
27384;DHT22;14851;51.166;4.760;2023-08-06T02:52:31;15.40;99.90
27384;DHT22;14851;51.166;4.760;2023-08-06T02:54:59;15.40;99.90
27384;DHT22;14851;51.166;4.760;2023-08-06T02:57:28;15.40;99.90
27384;DHT22;14851;51.166;4.760;2023-08-06T02:59:55;15.40;99.90
27384;DHT22;14851;51.166;4.760;2023-08-06T03:02:24;15.40;99.90
27384;DHT22;14851;51.166;4.760;2023-08-06T03:05:07;15.50;99.90
27384;DHT22;14851;51.166;4.760;2023-08-06T03:07:37;15.40;99.90
27384;DHT22;14851;51.166;4.760;2023-08-06T03:10:16;15.40;99.90
27384;DHT22;14851;51.166;4.760;2023-08-06T03:12:43;15.50;99.90
27384;DHT22;14851;51.166;4.760;2023-08-06T03:15:12;15.40;99.90
27384;DHT22;14851;51.166;4.760;2023-08-06T03:17:40;15.40;99.90
27384;DHT22;14851;51.166;4.760;2023-08-06T03:20:08;15.40;99.90
27384;DHT22;14851;51.166;4.760;2023-08-06T03:22:35;15.40;99.90
27384;DHT22;14851;51.166;4.760;2023-08-06T03:25:02;15.40;99.90
27384;DHT22;14851;51.166;4.760;2023-08-06T03:27:28;15.40;99.90
27384;DHT22;14851;51.166;4.760;2023-08-06T03:29:54;15.40;99.90
27384;DHT22;14851;51.166;4.760;2023-08-06T03:32:22;15.30;99.90
27384;DHT22;14851;51.166;4.760;2023-08-06T03:34:53;15.40;99.90
27384;DHT22;14851;51.166;4.760;2023-08-06T03:37:21;15.40;99.90
27384;DHT22;14851;51.166;4.760;2023-08-06T03:39:51;15.40;99.90
27384;DHT22;14851;51.166;4.760;2023-08-06T03:42:19;15.40;99.90
27384;DHT22;14851;51.166;4.760;2023-08-06T03:44:47;15.40;99.90
27384;DHT22;14851;51.166;4.760;2023-08-06T03:47:13;15.30;99.90
27384;DHT22;14851;51.166;4.760;2023-08-06T03:49:41;15.30;99.90
27384;DHT22;14851;51.166;4.760;2023-08-06T03:52:09;15.30;99.90
27384;DHT22;14851;51.166;4.760;2023-08-06T03:54:35;15.30;99.90
27384;DHT22;14851;51.166;4.760;2023-08-06T03:57:02;15.40;99.90
27384;DHT22;14851;51.166;4.760;2023-08-06T03:59:28;15.30;99.90
27384;DHT22;14851;51.166;4.760;2023-08-06T04:01:56;15.40;99.90
27384;DHT22;14851;51.166;4.760;2023-08-06T04:04:23;15.30;99.90
27384;DHT22;14851;51.166;4.760;2023-08-06T04:06:48;15.30;99.90
27384;DHT22;14851;51.166;4.760;2023-08-06T04:09:14;15.30;99.90
27384;DHT22;14851;51.166;4.760;2023-08-06T04:11:40;15.30;99.90
27384;DHT22;14851;51.166;4.760;2023-08-06T04:14:08;15.30;99.90
27384;DHT22;14851;51.166;4.760;2023-08-06T04:16:38;15.30;99.90
27384;DHT22;14851;51.166;4.760;2023-08-06T04:19:07;15.30;99.90
27384;DHT22;14851;51.166;4.760;2023-08-06T04:21:33;15.30;99.90
27384;DHT22;14851;51.166;4.760;2023-08-06T04:23:59;15.30;99.90
27384;DHT22;14851;51.166;4.760;2023-08-06T04:26:25;15.30;99.90
27384;DHT22;14851;51.166;4.760;2023-08-06T04:28:54;15.20;99.90
27384;DHT22;14851;51.166;4.760;2023-08-06T04:31:21;15.20;99.90
27384;DHT22;14851;51.166;4.760;2023-08-06T04:33:47;15.30;99.90
27384;DHT22;14851;51.166;4.760;2023-08-06T04:36:14;15.20;99.90
27384;DHT22;14851;51.166;4.760;2023-08-06T04:38:41;15.20;99.90
27384;DHT22;14851;51.166;4.760;2023-08-06T04:41:11;15.20;99.90
27384;DHT22;14851;51.166;4.760;2023-08-06T04:43:37;15.30;99.90
27384;DHT22;14851;51.166;4.760;2023-08-06T04:46:03;15.20;99.90
27384;DHT22;14851;51.166;4.760;2023-08-06T04:48:29;15.30;99.90
27384;DHT22;14851;51.166;4.760;2023-08-06T04:50:57;15.30;99.90
27384;DHT22;14851;51.166;4.760;2023-08-06T04:53:23;15.30;99.90
27384;DHT22;14851;51.166;4.760;2023-08-06T04:55:48;15.30;99.90
27384;DHT22;14851;51.166;4.760;2023-08-06T04:58:14;15.30;99.90
27384;DHT22;14851;51.166;4.760;2023-08-06T05:00:42;15.30;99.90
27384;DHT22;14851;51.166;4.760;2023-08-06T05:03:08;15.30;99.90
27384;DHT22;14851;51.166;4.760;2023-08-06T05:05:35;15.20;99.90
27384;DHT22;14851;51.166;4.760;2023-08-06T05:08:01;15.20;99.90
27384;DHT22;14851;51.166;4.760;2023-08-06T05:10:27;15.10;99.90
27384;DHT22;14851;51.166;4.760;2023-08-06T05:12:53;15.00;99.90
27384;DHT22;14851;51.166;4.760;2023-08-06T05:15:22;14.90;99.90
27384;DHT22;14851;51.166;4.760;2023-08-06T05:17:51;14.80;99.90
27384;DHT22;14851;51.166;4.760;2023-08-06T05:20:16;14.70;99.90
27384;DHT22;14851;51.166;4.760;2023-08-06T05:22:43;14.60;99.90
27384;DHT22;14851;51.166;4.760;2023-08-06T05:25:12;14.60;99.90
27384;DHT22;14851;51.166;4.760;2023-08-06T05:27:38;14.50;99.90
27384;DHT22;14851;51.166;4.760;2023-08-06T05:30:05;14.50;99.90
27384;DHT22;14851;51.166;4.760;2023-08-06T05:32:31;14.50;99.90
27384;DHT22;14851;51.166;4.760;2023-08-06T05:34:57;14.50;99.90
27384;DHT22;14851;51.166;4.760;2023-08-06T05:37:23;14.50;99.90
27384;DHT22;14851;51.166;4.760;2023-08-06T05:39:49;14.60;99.90
27384;DHT22;14851;51.166;4.760;2023-08-06T05:42:14;14.50;99.90
27384;DHT22;14851;51.166;4.760;2023-08-06T05:44:40;14.50;99.90
27384;DHT22;14851;51.166;4.760;2023-08-06T05:47:06;14.50;99.90
27384;DHT22;14851;51.166;4.760;2023-08-06T05:49:32;14.60;99.90
27384;DHT22;14851;51.166;4.760;2023-08-06T05:51:58;14.60;99.90
27384;DHT22;14851;51.166;4.760;2023-08-06T05:54:24;14.70;99.90
27384;DHT22;14851;51.166;4.760;2023-08-06T05:56:49;14.70;99.90
27384;DHT22;14851;51.166;4.760;2023-08-06T05:59:18;14.60;99.90
27384;DHT22;14851;51.166;4.760;2023-08-06T06:01:43;14.60;99.90
27384;DHT22;14851;51.166;4.760;2023-08-06T06:04:09;14.60;99.90
27384;DHT22;14851;51.166;4.760;2023-08-06T06:06:35;14.60;99.90
27384;DHT22;14851;51.166;4.760;2023-08-06T06:09:01;14.60;99.90
27384;DHT22;14851;51.166;4.760;2023-08-06T06:11:27;14.60;99.90
27384;DHT22;14851;51.166;4.760;2023-08-06T06:13:55;14.60;99.90
27384;DHT22;14851;51.166;4.760;2023-08-06T06:16:21;14.60;99.90
27384;DHT22;14851;51.166;4.760;2023-08-06T06:18:47;14.60;99.90
27384;DHT22;14851;51.166;4.760;2023-08-06T06:21:12;14.60;99.90
27384;DHT22;14851;51.166;4.760;2023-08-06T06:23:38;14.60;99.90
27384;DHT22;14851;51.166;4.760;2023-08-06T06:26:04;14.50;99.90
27384;DHT22;14851;51.166;4.760;2023-08-06T06:28:33;14.50;99.90
27384;DHT22;14851;51.166;4.760;2023-08-06T06:31:02;14.50;99.90
27384;DHT22;14851;51.166;4.760;2023-08-06T06:33:28;14.50;99.90
27384;DHT22;14851;51.166;4.760;2023-08-06T06:35:56;14.50;99.90
27384;DHT22;14851;51.166;4.760;2023-08-06T06:38:22;14.50;99.90
27384;DHT22;14851;51.166;4.760;2023-08-06T06:40:55;14.50;99.90
27384;DHT22;14851;51.166;4.760;2023-08-06T06:43:21;14.50;99.90
27384;DHT22;14851;51.166;4.760;2023-08-06T06:45:47;14.50;99.90
27384;DHT22;14851;51.166;4.760;2023-08-06T06:48:17;14.50;99.90
27384;DHT22;14851;51.166;4.760;2023-08-06T06:50:46;14.40;99.90
27384;DHT22;14851;51.166;4.760;2023-08-06T06:53:12;14.40;99.90
27384;DHT22;14851;51.166;4.760;2023-08-06T06:55:38;14.40;99.90
27384;DHT22;14851;51.166;4.760;2023-08-06T06:58:04;14.40;99.90
27384;DHT22;14851;51.166;4.760;2023-08-06T07:00:29;14.40;99.90
27384;DHT22;14851;51.166;4.760;2023-08-06T07:02:55;14.40;99.90
27384;DHT22;14851;51.166;4.760;2023-08-06T07:05:22;14.40;99.90
27384;DHT22;14851;51.166;4.760;2023-08-06T07:07:48;14.40;99.90
27384;DHT22;14851;51.166;4.760;2023-08-06T07:10:14;14.50;99.90
27384;DHT22;14851;51.166;4.760;2023-08-06T07:12:40;14.50;99.90
27384;DHT22;14851;51.166;4.760;2023-08-06T07:15:09;14.50;99.90
27384;DHT22;14851;51.166;4.760;2023-08-06T07:17:35;14.50;99.90
27384;DHT22;14851;51.166;4.760;2023-08-06T07:20:05;14.50;99.90
27384;DHT22;14851;51.166;4.760;2023-08-06T07:22:32;14.50;99.90
27384;DHT22;14851;51.166;4.760;2023-08-06T07:24:57;14.50;99.90
27384;DHT22;14851;51.166;4.760;2023-08-06T07:27:24;14.50;99.90
27384;DHT22;14851;51.166;4.760;2023-08-06T07:29:50;14.50;99.90
27384;DHT22;14851;51.166;4.760;2023-08-06T07:32:16;14.50;99.90
27384;DHT22;14851;51.166;4.760;2023-08-06T07:34:42;14.50;99.90
27384;DHT22;14851;51.166;4.760;2023-08-06T07:37:08;14.50;99.90
27384;DHT22;14851;51.166;4.760;2023-08-06T07:39:34;14.50;99.90
27384;DHT22;14851;51.166;4.760;2023-08-06T07:42:02;14.40;99.90
27384;DHT22;14851;51.166;4.760;2023-08-06T07:44:30;14.50;99.90
27384;DHT22;14851;51.166;4.760;2023-08-06T07:46:55;14.50;99.90
27384;DHT22;14851;51.166;4.760;2023-08-06T07:49:24;14.50;99.90
27384;DHT22;14851;51.166;4.760;2023-08-06T07:51:50;14.50;99.90
27384;DHT22;14851;51.166;4.760;2023-08-06T07:54:19;14.50;99.90
27384;DHT22;14851;51.166;4.760;2023-08-06T07:56:45;14.50;99.90
27384;DHT22;14851;51.166;4.760;2023-08-06T07:59:11;14.50;99.90
27384;DHT22;14851;51.166;4.760;2023-08-06T08:01:37;14.50;99.90
27384;DHT22;14851;51.166;4.760;2023-08-06T08:04:02;14.60;99.90
27384;DHT22;14851;51.166;4.760;2023-08-06T08:06:30;14.50;99.90
27384;DHT22;14851;51.166;4.760;2023-08-06T08:08:55;14.50;99.90
27384;DHT22;14851;51.166;4.760;2023-08-06T08:11:23;14.50;99.90
27384;DHT22;14851;51.166;4.760;2023-08-06T08:13:49;14.50;99.90
27384;DHT22;14851;51.166;4.760;2023-08-06T08:16:15;14.60;99.90
27384;DHT22;14851;51.166;4.760;2023-08-06T08:18:41;14.60;99.90
27384;DHT22;14851;51.166;4.760;2023-08-06T08:21:07;14.60;99.90
27384;DHT22;14851;51.166;4.760;2023-08-06T08:23:32;14.60;99.90
27384;DHT22;14851;51.166;4.760;2023-08-06T08:26:01;14.60;99.90
27384;DHT22;14851;51.166;4.760;2023-08-06T08:28:30;14.60;99.90
27384;DHT22;14851;51.166;4.760;2023-08-06T08:30:55;14.60;99.90
27384;DHT22;14851;51.166;4.760;2023-08-06T08:33:24;14.70;99.90
27384;DHT22;14851;51.166;4.760;2023-08-06T08:35:50;14.70;99.90
27384;DHT22;14851;51.166;4.760;2023-08-06T08:38:16;14.70;99.90
27384;DHT22;14851;51.166;4.760;2023-08-06T08:40:46;14.70;99.90
27384;DHT22;14851;51.166;4.760;2023-08-06T08:43:15;14.70;99.90
27384;DHT22;14851;51.166;4.760;2023-08-06T08:45:42;14.60;99.90
27384;DHT22;14851;51.166;4.760;2023-08-06T08:48:12;14.60;99.90
27384;DHT22;14851;51.166;4.760;2023-08-06T08:50:40;14.70;99.90
27384;DHT22;14851;51.166;4.760;2023-08-06T08:53:07;14.60;99.90
27384;DHT22;14851;51.166;4.760;2023-08-06T08:55:33;14.70;99.90
27384;DHT22;14851;51.166;4.760;2023-08-06T08:57:59;14.70;99.90
27384;DHT22;14851;51.166;4.760;2023-08-06T09:00:25;14.70;99.90
27384;DHT22;14851;51.166;4.760;2023-08-06T09:02:52;14.70;99.90
27384;DHT22;14851;51.166;4.760;2023-08-06T09:05:19;14.70;99.90
27384;DHT22;14851;51.166;4.760;2023-08-06T09:07:48;14.70;99.90
27384;DHT22;14851;51.166;4.760;2023-08-06T09:10:16;14.80;99.90
27384;DHT22;14851;51.166;4.760;2023-08-06T09:12:47;14.80;99.90
27384;DHT22;14851;51.166;4.760;2023-08-06T09:15:13;14.70;99.90
27384;DHT22;14851;51.166;4.760;2023-08-06T09:17:41;14.70;99.90
27384;DHT22;14851;51.166;4.760;2023-08-06T09:20:14;14.70;99.90
27384;DHT22;14851;51.166;4.760;2023-08-06T09:22:40;14.80;99.90
27384;DHT22;14851;51.166;4.760;2023-08-06T09:25:07;14.70;99.90
27384;DHT22;14851;51.166;4.760;2023-08-06T09:27:37;14.80;99.90
27384;DHT22;14851;51.166;4.760;2023-08-06T09:30:05;14.80;99.90
27384;DHT22;14851;51.166;4.760;2023-08-06T09:32:48;14.80;99.90
27384;DHT22;14851;51.166;4.760;2023-08-06T09:35:19;14.80;99.90
27384;DHT22;14851;51.166;4.760;2023-08-06T09:37:45;14.80;99.90
27384;DHT22;14851;51.166;4.760;2023-08-06T09:40:28;14.70;99.90
27384;DHT22;14851;51.166;4.760;2023-08-06T09:42:54;14.70;99.90
27384;DHT22;14851;51.166;4.760;2023-08-06T09:45:20;14.70;99.90
27384;DHT22;14851;51.166;4.760;2023-08-06T09:47:49;14.70;99.90
27384;DHT22;14851;51.166;4.760;2023-08-06T09:50:19;14.70;99.90
27384;DHT22;14851;51.166;4.760;2023-08-06T09:52:46;14.70;99.90
27384;DHT22;14851;51.166;4.760;2023-08-06T09:55:13;14.70;99.90
27384;DHT22;14851;51.166;4.760;2023-08-06T09:57:40;14.70;99.90
27384;DHT22;14851;51.166;4.760;2023-08-06T10:00:09;14.70;99.90
27384;DHT22;14851;51.166;4.760;2023-08-06T10:02:39;14.70;99.90
27384;DHT22;14851;51.166;4.760;2023-08-06T10:05:07;14.70;99.90
27384;DHT22;14851;51.166;4.760;2023-08-06T10:07:33;14.80;99.90
27384;DHT22;14851;51.166;4.760;2023-08-06T10:10:00;14.80;99.90
27384;DHT22;14851;51.166;4.760;2023-08-06T10:12:29;14.90;99.90
27384;DHT22;14851;51.166;4.760;2023-08-06T10:14:57;14.90;99.90
27384;DHT22;14851;51.166;4.760;2023-08-06T10:17:24;15.00;99.90
27384;DHT22;14851;51.166;4.760;2023-08-06T10:19:51;15.00;99.90
27384;DHT22;14851;51.166;4.760;2023-08-06T10:22:20;15.10;99.90
27384;DHT22;14851;51.166;4.760;2023-08-06T10:27:34;15.10;99.90
27384;DHT22;14851;51.166;4.760;2023-08-06T10:31:03;15.00;99.90
27384;DHT22;14851;51.166;4.760;2023-08-06T10:33:10;15.00;99.90
27384;DHT22;14851;51.166;4.760;2023-08-06T10:35:51;14.90;99.90
27384;DHT22;14851;51.166;4.760;2023-08-06T10:38:20;14.80;99.90
27384;DHT22;14851;51.166;4.760;2023-08-06T10:40:50;14.70;99.90
27384;DHT22;14851;51.166;4.760;2023-08-06T10:43:32;14.70;99.90
27384;DHT22;14851;51.166;4.760;2023-08-06T10:46:03;14.80;99.90
27384;DHT22;14851;51.166;4.760;2023-08-06T10:48:41;14.80;99.90
27384;DHT22;14851;51.166;4.760;2023-08-06T10:51:13;14.90;99.90
27384;DHT22;14851;51.166;4.760;2023-08-06T10:53:45;15.00;99.90
27384;DHT22;14851;51.166;4.760;2023-08-06T10:56:39;15.00;99.90
27384;DHT22;14851;51.166;4.760;2023-08-06T10:59:07;15.00;99.90
27384;DHT22;14851;51.166;4.760;2023-08-06T11:01:34;15.10;99.90
27384;DHT22;14851;51.166;4.760;2023-08-06T11:04:02;15.10;99.90
27384;DHT22;14851;51.166;4.760;2023-08-06T11:06:33;15.10;99.90
27384;DHT22;14851;51.166;4.760;2023-08-06T11:08:59;15.10;99.90
27384;DHT22;14851;51.166;4.760;2023-08-06T11:11:25;15.10;99.90
27384;DHT22;14851;51.166;4.760;2023-08-06T11:13:51;15.10;99.90
27384;DHT22;14851;51.166;4.760;2023-08-06T11:16:21;15.10;99.90
27384;DHT22;14851;51.166;4.760;2023-08-06T11:18:47;15.10;99.90
27384;DHT22;14851;51.166;4.760;2023-08-06T11:21:13;15.10;99.90
27384;DHT22;14851;51.166;4.760;2023-08-06T11:23:40;15.10;99.90
27384;DHT22;14851;51.166;4.760;2023-08-06T11:26:07;15.10;99.90
27384;DHT22;14851;51.166;4.760;2023-08-06T11:28:33;15.00;99.90
27384;DHT22;14851;51.166;4.760;2023-08-06T11:31:02;14.90;99.90
27384;DHT22;14851;51.166;4.760;2023-08-06T11:33:30;15.00;99.90
27384;DHT22;14851;51.166;4.760;2023-08-06T11:35:58;14.90;99.90
27384;DHT22;14851;51.166;4.760;2023-08-06T11:38:28;14.90;99.90
27384;DHT22;14851;51.166;4.760;2023-08-06T11:40:56;14.90;99.90
27384;DHT22;14851;51.166;4.760;2023-08-06T11:43:23;14.90;99.90
27384;DHT22;14851;51.166;4.760;2023-08-06T11:45:50;14.90;99.90
27384;DHT22;14851;51.166;4.760;2023-08-06T11:48:20;14.90;99.90
27384;DHT22;14851;51.166;4.760;2023-08-06T11:50:45;14.90;99.90
27384;DHT22;14851;51.166;4.760;2023-08-06T11:53:14;15.00;99.90
27384;DHT22;14851;51.166;4.760;2023-08-06T11:55:47;15.00;99.90
27384;DHT22;14851;51.166;4.760;2023-08-06T11:58:17;15.00;99.90
27384;DHT22;14851;51.166;4.760;2023-08-06T12:00:43;15.00;99.90
27384;DHT22;14851;51.166;4.760;2023-08-06T12:03:10;15.00;99.90
27384;DHT22;14851;51.166;4.760;2023-08-06T12:05:37;15.00;99.90
27384;DHT22;14851;51.166;4.760;2023-08-06T12:08:04;15.00;99.90
27384;DHT22;14851;51.166;4.760;2023-08-06T12:10:31;15.10;99.90
27384;DHT22;14851;51.166;4.760;2023-08-06T12:12:57;15.10;99.90
27384;DHT22;14851;51.166;4.760;2023-08-06T12:15:25;15.10;99.90
27384;DHT22;14851;51.166;4.760;2023-08-06T12:17:51;15.00;99.90
27384;DHT22;14851;51.166;4.760;2023-08-06T12:20:17;14.90;99.90
27384;DHT22;14851;51.166;4.760;2023-08-06T12:22:43;14.80;99.90
27384;DHT22;14851;51.166;4.760;2023-08-06T12:25:10;14.80;99.90
27384;DHT22;14851;51.166;4.760;2023-08-06T12:27:42;14.80;99.90
27384;DHT22;14851;51.166;4.760;2023-08-06T12:30:09;14.80;99.90
27384;DHT22;14851;51.166;4.760;2023-08-06T12:32:39;14.90;99.90
27384;DHT22;14851;51.166;4.760;2023-08-06T12:35:05;14.90;99.90
27384;DHT22;14851;51.166;4.760;2023-08-06T12:37:33;14.90;99.90
27384;DHT22;14851;51.166;4.760;2023-08-06T12:39:59;14.90;99.90
27384;DHT22;14851;51.166;4.760;2023-08-06T12:42:25;14.90;99.90
27384;DHT22;14851;51.166;4.760;2023-08-06T12:44:51;14.90;99.90
27384;DHT22;14851;51.166;4.760;2023-08-06T12:47:17;14.90;99.90
27384;DHT22;14851;51.166;4.760;2023-08-06T12:49:44;14.90;99.90
27384;DHT22;14851;51.166;4.760;2023-08-06T12:52:10;15.00;99.90
27384;DHT22;14851;51.166;4.760;2023-08-06T12:54:38;14.90;99.90
27384;DHT22;14851;51.166;4.760;2023-08-06T12:57:07;14.90;99.90
27384;DHT22;14851;51.166;4.760;2023-08-06T12:59:33;14.90;99.90
27384;DHT22;14851;51.166;4.760;2023-08-06T13:02:00;14.90;99.90
27384;DHT22;14851;51.166;4.760;2023-08-06T13:04:26;14.90;99.90
27384;DHT22;14851;51.166;4.760;2023-08-06T13:06:53;14.90;99.90
27384;DHT22;14851;51.166;4.760;2023-08-06T13:09:19;14.90;99.90
27384;DHT22;14851;51.166;4.760;2023-08-06T13:11:47;14.90;99.90
27384;DHT22;14851;51.166;4.760;2023-08-06T13:14:15;14.90;99.90
27384;DHT22;14851;51.166;4.760;2023-08-06T13:16:42;14.90;99.90
27384;DHT22;14851;51.166;4.760;2023-08-06T13:19:10;15.00;99.90
27384;DHT22;14851;51.166;4.760;2023-08-06T13:24:08;14.90;99.90
27384;DHT22;14851;51.166;4.760;2023-08-06T13:26:34;14.90;99.90
27384;DHT22;14851;51.166;4.760;2023-08-06T13:29:02;15.00;99.90
27384;DHT22;14851;51.166;4.760;2023-08-06T13:31:29;14.90;99.90
27384;DHT22;14851;51.166;4.760;2023-08-06T13:33:55;15.00;99.90
27384;DHT22;14851;51.166;4.760;2023-08-06T13:36:24;14.90;99.90
27384;DHT22;14851;51.166;4.760;2023-08-06T13:38:50;14.90;99.90
27384;DHT22;14851;51.166;4.760;2023-08-06T13:41:16;14.90;99.90
27384;DHT22;14851;51.166;4.760;2023-08-06T13:43:42;14.90;99.90
27384;DHT22;14851;51.166;4.760;2023-08-06T13:46:08;14.80;99.90
27384;DHT22;14851;51.166;4.760;2023-08-06T13:48:34;14.70;99.90
27384;DHT22;14851;51.166;4.760;2023-08-06T13:51:00;14.70;99.90
27384;DHT22;14851;51.166;4.760;2023-08-06T13:53:27;14.70;99.90
27384;DHT22;14851;51.166;4.760;2023-08-06T13:55:58;14.60;99.90
27384;DHT22;14851;51.166;4.760;2023-08-06T13:58:24;14.60;99.90
27384;DHT22;14851;51.166;4.760;2023-08-06T14:00:53;14.60;99.90
27384;DHT22;14851;51.166;4.760;2023-08-06T14:03:20;14.50;99.90
27384;DHT22;14851;51.166;4.760;2023-08-06T14:05:46;14.50;99.90
27384;DHT22;14851;51.166;4.760;2023-08-06T14:08:14;14.40;99.90
27384;DHT22;14851;51.166;4.760;2023-08-06T14:10:40;14.40;99.90
27384;DHT22;14851;51.166;4.760;2023-08-06T14:13:06;14.40;99.90
27384;DHT22;14851;51.166;4.760;2023-08-06T14:15:32;14.50;99.90
27384;DHT22;14851;51.166;4.760;2023-08-06T14:17:58;14.50;99.90
27384;DHT22;14851;51.166;4.760;2023-08-06T14:20:26;14.50;99.90
27384;DHT22;14851;51.166;4.760;2023-08-06T14:22:52;14.50;99.90
27384;DHT22;14851;51.166;4.760;2023-08-06T14:25:18;14.50;99.90
27384;DHT22;14851;51.166;4.760;2023-08-06T14:27:44;14.50;99.90
27384;DHT22;14851;51.166;4.760;2023-08-06T14:30:12;14.60;99.90
27384;DHT22;14851;51.166;4.760;2023-08-06T14:32:38;14.60;99.90
27384;DHT22;14851;51.166;4.760;2023-08-06T14:35:04;14.60;99.90
27384;DHT22;14851;51.166;4.760;2023-08-06T14:37:30;14.60;99.90
27384;DHT22;14851;51.166;4.760;2023-08-06T14:39:56;14.60;99.90
27384;DHT22;14851;51.166;4.760;2023-08-06T14:42:22;14.60;99.90
27384;DHT22;14851;51.166;4.760;2023-08-06T14:44:50;14.50;99.90
27384;DHT22;14851;51.166;4.760;2023-08-06T14:47:16;14.50;99.90
27384;DHT22;14851;51.166;4.760;2023-08-06T14:49:42;14.50;99.90
27384;DHT22;14851;51.166;4.760;2023-08-06T14:52:08;14.50;99.90
27384;DHT22;14851;51.166;4.760;2023-08-06T14:54:34;14.50;99.90
27384;DHT22;14851;51.166;4.760;2023-08-06T14:57:00;14.50;99.90
27384;DHT22;14851;51.166;4.760;2023-08-06T14:59:26;14.50;99.90
27384;DHT22;14851;51.166;4.760;2023-08-06T15:01:53;14.50;99.90
27384;DHT22;14851;51.166;4.760;2023-08-06T15:04:21;14.40;99.90
27384;DHT22;14851;51.166;4.760;2023-08-06T15:06:49;14.40;99.90
27384;DHT22;14851;51.166;4.760;2023-08-06T15:09:15;14.40;99.90
27384;DHT22;14851;51.166;4.760;2023-08-06T15:11:40;14.50;99.90
27384;DHT22;14851;51.166;4.760;2023-08-06T15:14:06;14.50;99.90
27384;DHT22;14851;51.166;4.760;2023-08-06T15:16:33;14.50;99.90
27384;DHT22;14851;51.166;4.760;2023-08-06T15:19:02;14.50;99.90
27384;DHT22;14851;51.166;4.760;2023-08-06T15:21:28;14.50;99.90
27384;DHT22;14851;51.166;4.760;2023-08-06T15:23:54;14.50;99.90
27384;DHT22;14851;51.166;4.760;2023-08-06T15:26:20;14.50;99.90
27384;DHT22;14851;51.166;4.760;2023-08-06T15:28:48;14.50;99.90
27384;DHT22;14851;51.166;4.760;2023-08-06T15:31:14;14.50;99.90
27384;DHT22;14851;51.166;4.760;2023-08-06T15:33:40;14.50;99.90
27384;DHT22;14851;51.166;4.760;2023-08-06T15:36:06;14.40;99.90
27384;DHT22;14851;51.166;4.760;2023-08-06T15:38:32;14.40;99.90
27384;DHT22;14851;51.166;4.760;2023-08-06T15:40:58;14.40;99.90